sensor_id;sensor_type;location;lat;lon;timestamp;temperature;humidity
3308;DHT22;1666;48.898;9.182;2024-02-04T00:01:18;8.40;1.00
3308;DHT22;1666;48.898;9.182;2024-02-04T00:03:48;8.40;1.00
3308;DHT22;1666;48.898;9.182;2024-02-04T00:06:18;8.40;1.00
3308;DHT22;1666;48.898;9.182;2024-02-04T00:08:49;8.40;1.00
3308;DHT22;1666;48.898;9.182;2024-02-04T00:11:19;8.30;1.00
3308;DHT22;1666;48.898;9.182;2024-02-04T00:13:49;8.30;1.00
3308;DHT22;1666;48.898;9.182;2024-02-04T00:16:22;8.40;1.00
3308;DHT22;1666;48.898;9.182;2024-02-04T00:18:52;8.30;1.00
3308;DHT22;1666;48.898;9.182;2024-02-04T00:21:22;8.30;1.00
3308;DHT22;1666;48.898;9.182;2024-02-04T00:23:52;8.30;1.00
3308;DHT22;1666;48.898;9.182;2024-02-04T00:26:22;8.20;1.00
3308;DHT22;1666;48.898;9.182;2024-02-04T00:28:52;8.30;1.00
3308;DHT22;1666;48.898;9.182;2024-02-04T00:31:24;8.30;1.00
3308;DHT22;1666;48.898;9.182;2024-02-04T00:33:54;8.30;1.00
3308;DHT22;1666;48.898;9.182;2024-02-04T00:36:24;8.20;1.00
3308;DHT22;1666;48.898;9.182;2024-02-04T00:38:54;8.30;1.00
3308;DHT22;1666;48.898;9.182;2024-02-04T00:41:25;8.30;1.00
3308;DHT22;1666;48.898;9.182;2024-02-04T00:43:54;8.30;1.00
3308;DHT22;1666;48.898;9.182;2024-02-04T00:46:27;8.20;1.00
3308;DHT22;1666;48.898;9.182;2024-02-04T00:48:57;8.20;1.00
3308;DHT22;1666;48.898;9.182;2024-02-04T00:51:27;8.20;1.00
3308;DHT22;1666;48.898;9.182;2024-02-04T00:53:58;8.20;1.00
3308;DHT22;1666;48.898;9.182;2024-02-04T00:56:27;8.20;1.00
3308;DHT22;1666;48.898;9.182;2024-02-04T00:58:57;8.10;1.00
3308;DHT22;1666;48.898;9.182;2024-02-04T01:01:30;8.10;1.00
3308;DHT22;1666;48.898;9.182;2024-02-04T01:04:02;8.10;1.00
3308;DHT22;1666;48.898;9.182;2024-02-04T01:06:32;8.10;1.00
3308;DHT22;1666;48.898;9.182;2024-02-04T01:09:22;8.10;1.00
3308;DHT22;1666;48.898;9.182;2024-02-04T01:11:52;8.10;1.00
3308;DHT22;1666;48.898;9.182;2024-02-04T01:14:22;8.00;1.00
3308;DHT22;1666;48.898;9.182;2024-02-04T01:16:55;7.90;1.00
3308;DHT22;1666;48.898;9.182;2024-02-04T01:19:25;7.90;1.00
3308;DHT22;1666;48.898;9.182;2024-02-04T01:21:55;7.90;1.00
3308;DHT22;1666;48.898;9.182;2024-02-04T01:24:26;7.80;1.00
3308;DHT22;1666;48.898;9.182;2024-02-04T01:26:56;7.80;1.00
3308;DHT22;1666;48.898;9.182;2024-02-04T01:29:26;7.80;1.00
3308;DHT22;1666;48.898;9.182;2024-02-04T01:31:58;7.90;1.00
3308;DHT22;1666;48.898;9.182;2024-02-04T01:34:28;7.90;1.00
3308;DHT22;1666;48.898;9.182;2024-02-04T01:36:59;7.90;1.00
3308;DHT22;1666;48.898;9.182;2024-02-04T01:39:29;8.00;1.00
3308;DHT22;1666;48.898;9.182;2024-02-04T01:41:59;7.90;1.00
3308;DHT22;1666;48.898;9.182;2024-02-04T01:44:29;7.90;1.00
3308;DHT22;1666;48.898;9.182;2024-02-04T01:47:02;8.00;1.00
3308;DHT22;1666;48.898;9.182;2024-02-04T01:49:33;7.90;1.00
3308;DHT22;1666;48.898;9.182;2024-02-04T01:52:04;8.00;1.00
3308;DHT22;1666;48.898;9.182;2024-02-04T01:54:37;8.00;1.00
3308;DHT22;1666;48.898;9.182;2024-02-04T01:57:09;8.00;1.00
3308;DHT22;1666;48.898;9.182;2024-02-04T01:59:40;8.00;1.00
3308;DHT22;1666;48.898;9.182;2024-02-04T02:02:13;8.00;1.00
3308;DHT22;1666;48.898;9.182;2024-02-04T02:04:43;8.00;1.00
3308;DHT22;1666;48.898;9.182;2024-02-04T02:07:14;8.00;1.00
3308;DHT22;1666;48.898;9.182;2024-02-04T02:09:47;8.10;1.00
3308;DHT22;1666;48.898;9.182;2024-02-04T02:12:19;8.10;1.00
3308;DHT22;1666;48.898;9.182;2024-02-04T02:14:58;8.10;1.00
3308;DHT22;1666;48.898;9.182;2024-02-04T02:17:38;8.10;1.00
3308;DHT22;1666;48.898;9.182;2024-02-04T02:20:21;8.20;1.00
3308;DHT22;1666;48.898;9.182;2024-02-04T02:22:57;8.20;1.00
3308;DHT22;1666;48.898;9.182;2024-02-04T02:25:38;8.20;1.00
3308;DHT22;1666;48.898;9.182;2024-02-04T02:28:08;8.20;1.00
3308;DHT22;1666;48.898;9.182;2024-02-04T02:30:38;8.20;1.00
3308;DHT22;1666;48.898;9.182;2024-02-04T02:33:08;8.20;1.00
3308;DHT22;1666;48.898;9.182;2024-02-04T02:35:39;8.20;1.00
3308;DHT22;1666;48.898;9.182;2024-02-04T02:38:16;8.30;1.00
3308;DHT22;1666;48.898;9.182;2024-02-04T02:40:56;8.30;1.00
3308;DHT22;1666;48.898;9.182;2024-02-04T02:43:28;8.30;1.00
3308;DHT22;1666;48.898;9.182;2024-02-04T02:46:00;8.30;1.00
3308;DHT22;1666;48.898;9.182;2024-02-04T02:48:30;8.30;1.00
3308;DHT22;1666;48.898;9.182;2024-02-04T02:51:00;8.30;1.00
3308;DHT22;1666;48.898;9.182;2024-02-04T02:53:30;8.30;1.00
3308;DHT22;1666;48.898;9.182;2024-02-04T02:56:03;8.30;1.00
3308;DHT22;1666;48.898;9.182;2024-02-04T02:58:34;8.30;1.00
3308;DHT22;1666;48.898;9.182;2024-02-04T03:01:04;8.30;1.00
3308;DHT22;1666;48.898;9.182;2024-02-04T03:03:34;8.30;1.00
3308;DHT22;1666;48.898;9.182;2024-02-04T03:06:05;8.30;1.00
3308;DHT22;1666;48.898;9.182;2024-02-04T03:08:35;8.30;1.00
3308;DHT22;1666;48.898;9.182;2024-02-04T03:11:09;8.30;1.00
3308;DHT22;1666;48.898;9.182;2024-02-04T03:13:39;8.30;1.00
3308;DHT22;1666;48.898;9.182;2024-02-04T03:16:10;8.40;1.00
3308;DHT22;1666;48.898;9.182;2024-02-04T03:18:41;8.40;1.00
3308;DHT22;1666;48.898;9.182;2024-02-04T03:21:15;8.40;1.00
3308;DHT22;1666;48.898;9.182;2024-02-04T03:23:45;8.40;1.00
3308;DHT22;1666;48.898;9.182;2024-02-04T03:26:19;8.40;1.00
3308;DHT22;1666;48.898;9.182;2024-02-04T03:28:50;8.40;1.00
3308;DHT22;1666;48.898;9.182;2024-02-04T03:31:20;8.50;1.00
3308;DHT22;1666;48.898;9.182;2024-02-04T03:33:51;8.50;1.00
3308;DHT22;1666;48.898;9.182;2024-02-04T03:36:22;8.40;1.00
3308;DHT22;1666;48.898;9.182;2024-02-04T03:38:53;8.50;1.00
3308;DHT22;1666;48.898;9.182;2024-02-04T03:41:26;8.50;1.00
3308;DHT22;1666;48.898;9.182;2024-02-04T03:43:56;8.50;1.00
3308;DHT22;1666;48.898;9.182;2024-02-04T03:46:26;8.50;1.00
3308;DHT22;1666;48.898;9.182;2024-02-04T03:48:56;8.40;1.00
3308;DHT22;1666;48.898;9.182;2024-02-04T03:51:26;8.40;1.00
3308;DHT22;1666;48.898;9.182;2024-02-04T03:53:56;8.40;1.00
3308;DHT22;1666;48.898;9.182;2024-02-04T03:56:29;8.40;1.00
3308;DHT22;1666;48.898;9.182;2024-02-04T03:58:59;8.40;1.00
3308;DHT22;1666;48.898;9.182;2024-02-04T04:01:29;8.40;1.00
3308;DHT22;1666;48.898;9.182;2024-02-04T04:03:59;8.40;1.00
3308;DHT22;1666;48.898;9.182;2024-02-04T04:06:30;8.40;1.00
3308;DHT22;1666;48.898;9.182;2024-02-04T04:09:00;8.40;1.00
3308;DHT22;1666;48.898;9.182;2024-02-04T04:11:32;8.40;1.00
3308;DHT22;1666;48.898;9.182;2024-02-04T04:14:02;8.50;1.00
3308;DHT22;1666;48.898;9.182;2024-02-04T04:16:32;8.50;1.00
3308;DHT22;1666;48.898;9.182;2024-02-04T04:19:02;8.50;1.00
3308;DHT22;1666;48.898;9.182;2024-02-04T04:21:32;8.40;1.00
3308;DHT22;1666;48.898;9.182;2024-02-04T04:24:03;8.50;1.00
3308;DHT22;1666;48.898;9.182;2024-02-04T04:26:36;8.50;1.00
3308;DHT22;1666;48.898;9.182;2024-02-04T04:29:06;8.50;1.00
3308;DHT22;1666;48.898;9.182;2024-02-04T04:31:36;8.50;1.00
3308;DHT22;1666;48.898;9.182;2024-02-04T04:34:06;8.50;1.00
3308;DHT22;1666;48.898;9.182;2024-02-04T04:36:36;8.50;1.00
3308;DHT22;1666;48.898;9.182;2024-02-04T04:39:06;8.50;1.00
3308;DHT22;1666;48.898;9.182;2024-02-04T04:41:40;8.50;1.00
3308;DHT22;1666;48.898;9.182;2024-02-04T04:44:10;8.50;1.00
3308;DHT22;1666;48.898;9.182;2024-02-04T04:46:40;8.50;1.00
3308;DHT22;1666;48.898;9.182;2024-02-04T04:49:10;8.50;1.00
3308;DHT22;1666;48.898;9.182;2024-02-04T04:51:44;8.50;1.00
3308;DHT22;1666;48.898;9.182;2024-02-04T04:54:15;8.50;1.00
3308;DHT22;1666;48.898;9.182;2024-02-04T04:56:47;8.50;1.00
3308;DHT22;1666;48.898;9.182;2024-02-04T04:59:17;8.50;1.00
3308;DHT22;1666;48.898;9.182;2024-02-04T05:01:48;8.50;1.00
3308;DHT22;1666;48.898;9.182;2024-02-04T05:04:18;8.50;1.00
3308;DHT22;1666;48.898;9.182;2024-02-04T05:06:52;8.50;1.00
3308;DHT22;1666;48.898;9.182;2024-02-04T05:09:22;8.60;1.00
3308;DHT22;1666;48.898;9.182;2024-02-04T05:11:55;8.50;1.00
3308;DHT22;1666;48.898;9.182;2024-02-04T05:14:25;8.60;1.00
3308;DHT22;1666;48.898;9.182;2024-02-04T05:16:55;8.50;1.00
3308;DHT22;1666;48.898;9.182;2024-02-04T05:19:25;8.50;1.00
3308;DHT22;1666;48.898;9.182;2024-02-04T05:21:55;8.50;1.00
3308;DHT22;1666;48.898;9.182;2024-02-04T05:24:25;8.50;1.00
3308;DHT22;1666;48.898;9.182;2024-02-04T05:26:58;8.60;1.00
3308;DHT22;1666;48.898;9.182;2024-02-04T05:29:28;8.50;1.00
3308;DHT22;1666;48.898;9.182;2024-02-04T05:31:58;8.60;1.00
3308;DHT22;1666;48.898;9.182;2024-02-04T05:34:28;8.60;1.00
3308;DHT22;1666;48.898;9.182;2024-02-04T05:37:01;8.60;1.00
3308;DHT22;1666;48.898;9.182;2024-02-04T05:39:31;8.70;1.00
3308;DHT22;1666;48.898;9.182;2024-02-04T05:42:04;8.60;1.00
3308;DHT22;1666;48.898;9.182;2024-02-04T05:44:34;8.60;1.00
3308;DHT22;1666;48.898;9.182;2024-02-04T05:47:04;8.70;1.00
3308;DHT22;1666;48.898;9.182;2024-02-04T05:49:34;8.70;1.00
3308;DHT22;1666;48.898;9.182;2024-02-04T05:52:06;8.70;1.00
3308;DHT22;1666;48.898;9.182;2024-02-04T05:54:37;8.70;1.00
3308;DHT22;1666;48.898;9.182;2024-02-04T05:57:11;8.60;1.00
3308;DHT22;1666;48.898;9.182;2024-02-04T05:59:41;8.70;1.00
3308;DHT22;1666;48.898;9.182;2024-02-04T06:02:11;8.60;1.00
3308;DHT22;1666;48.898;9.182;2024-02-04T06:04:41;8.70;1.00
3308;DHT22;1666;48.898;9.182;2024-02-04T06:07:11;8.70;1.00
3308;DHT22;1666;48.898;9.182;2024-02-04T06:09:41;8.70;1.00
3308;DHT22;1666;48.898;9.182;2024-02-04T06:12:13;8.70;1.00
3308;DHT22;1666;48.898;9.182;2024-02-04T06:14:43;8.70;1.00
3308;DHT22;1666;48.898;9.182;2024-02-04T06:17:13;8.80;1.00
3308;DHT22;1666;48.898;9.182;2024-02-04T06:19:43;8.80;1.00
3308;DHT22;1666;48.898;9.182;2024-02-04T06:22:14;8.80;1.00
3308;DHT22;1666;48.898;9.182;2024-02-04T06:24:45;8.70;1.00
3308;DHT22;1666;48.898;9.182;2024-02-04T06:27:18;8.80;1.00
3308;DHT22;1666;48.898;9.182;2024-02-04T06:29:48;8.70;1.00
3308;DHT22;1666;48.898;9.182;2024-02-04T06:32:18;8.80;1.00
3308;DHT22;1666;48.898;9.182;2024-02-04T06:34:49;8.80;1.00
3308;DHT22;1666;48.898;9.182;2024-02-04T06:37:21;8.80;1.00
3308;DHT22;1666;48.898;9.182;2024-02-04T06:39:52;8.80;1.00
3308;DHT22;1666;48.898;9.182;2024-02-04T06:42:25;8.80;1.00
3308;DHT22;1666;48.898;9.182;2024-02-04T06:44:55;8.90;1.00
3308;DHT22;1666;48.898;9.182;2024-02-04T06:47:25;8.90;1.00
3308;DHT22;1666;48.898;9.182;2024-02-04T06:49:55;8.80;1.00
3308;DHT22;1666;48.898;9.182;2024-02-04T06:52:25;8.80;1.00
3308;DHT22;1666;48.898;9.182;2024-02-04T06:54:55;8.80;1.00
3308;DHT22;1666;48.898;9.182;2024-02-04T06:57:27;8.90;1.00
3308;DHT22;1666;48.898;9.182;2024-02-04T06:59:57;8.80;1.00
3308;DHT22;1666;48.898;9.182;2024-02-04T07:02:27;8.90;1.00
3308;DHT22;1666;48.898;9.182;2024-02-04T07:04:57;8.90;1.00
3308;DHT22;1666;48.898;9.182;2024-02-04T07:07:28;8.80;1.00
3308;DHT22;1666;48.898;9.182;2024-02-04T07:09:58;8.80;1.00
3308;DHT22;1666;48.898;9.182;2024-02-04T07:12:32;8.80;1.00
3308;DHT22;1666;48.898;9.182;2024-02-04T07:15:02;8.80;1.00
3308;DHT22;1666;48.898;9.182;2024-02-04T07:17:32;8.80;1.00
3308;DHT22;1666;48.898;9.182;2024-02-04T07:20:02;8.80;1.00
3308;DHT22;1666;48.898;9.182;2024-02-04T07:22:33;8.70;1.00
3308;DHT22;1666;48.898;9.182;2024-02-04T07:25:05;8.70;1.00
3308;DHT22;1666;48.898;9.182;2024-02-04T07:27:37;8.70;1.00
3308;DHT22;1666;48.898;9.182;2024-02-04T07:30:08;8.80;1.00
3308;DHT22;1666;48.898;9.182;2024-02-04T07:32:38;8.80;1.00
3308;DHT22;1666;48.898;9.182;2024-02-04T07:35:09;8.80;1.00
3308;DHT22;1666;48.898;9.182;2024-02-04T07:37:39;8.80;1.00
3308;DHT22;1666;48.898;9.182;2024-02-04T07:40:10;8.80;1.00
3308;DHT22;1666;48.898;9.182;2024-02-04T07:42:43;8.90;1.00
3308;DHT22;1666;48.898;9.182;2024-02-04T07:45:13;8.90;1.00
3308;DHT22;1666;48.898;9.182;2024-02-04T07:47:43;9.00;1.00
3308;DHT22;1666;48.898;9.182;2024-02-04T07:50:13;9.00;1.00
3308;DHT22;1666;48.898;9.182;2024-02-04T07:52:43;9.10;1.00
3308;DHT22;1666;48.898;9.182;2024-02-04T07:55:13;9.10;1.00
3308;DHT22;1666;48.898;9.182;2024-02-04T07:57:46;9.10;1.00
3308;DHT22;1666;48.898;9.182;2024-02-04T08:00:16;9.10;1.00
3308;DHT22;1666;48.898;9.182;2024-02-04T08:02:47;9.20;1.00
3308;DHT22;1666;48.898;9.182;2024-02-04T08:05:17;9.20;1.00
3308;DHT22;1666;48.898;9.182;2024-02-04T08:07:47;9.20;1.00
3308;DHT22;1666;48.898;9.182;2024-02-04T08:10:17;9.20;1.00
3308;DHT22;1666;48.898;9.182;2024-02-04T08:12:50;9.20;1.00
3308;DHT22;1666;48.898;9.182;2024-02-04T08:15:22;9.20;1.00
3308;DHT22;1666;48.898;9.182;2024-02-04T08:17:52;9.20;1.00
3308;DHT22;1666;48.898;9.182;2024-02-04T08:20:23;9.30;1.00
3308;DHT22;1666;48.898;9.182;2024-02-04T08:22:54;9.40;1.00
3308;DHT22;1666;48.898;9.182;2024-02-04T08:25:24;9.40;1.00
3308;DHT22;1666;48.898;9.182;2024-02-04T08:27:57;9.40;1.00
3308;DHT22;1666;48.898;9.182;2024-02-04T08:30:28;9.40;1.00
3308;DHT22;1666;48.898;9.182;2024-02-04T08:32:58;9.40;1.00
3308;DHT22;1666;48.898;9.182;2024-02-04T08:35:28;9.40;1.00
3308;DHT22;1666;48.898;9.182;2024-02-04T08:37:58;9.50;1.00
3308;DHT22;1666;48.898;9.182;2024-02-04T08:40:28;9.50;1.00
3308;DHT22;1666;48.898;9.182;2024-02-04T08:43:00;9.50;1.00
3308;DHT22;1666;48.898;9.182;2024-02-04T08:45:30;9.40;1.00
3308;DHT22;1666;48.898;9.182;2024-02-04T08:48:00;9.50;1.00
3308;DHT22;1666;48.898;9.182;2024-02-04T08:50:31;9.50;1.00
3308;DHT22;1666;48.898;9.182;2024-02-04T08:53:01;9.60;1.00
3308;DHT22;1666;48.898;9.182;2024-02-04T08:55:30;9.60;1.00
3308;DHT22;1666;48.898;9.182;2024-02-04T08:58:03;9.60;1.00
3308;DHT22;1666;48.898;9.182;2024-02-04T09:00:33;9.60;1.00
3308;DHT22;1666;48.898;9.182;2024-02-04T09:03:04;9.70;1.00
3308;DHT22;1666;48.898;9.182;2024-02-04T09:05:34;9.70;1.00
3308;DHT22;1666;48.898;9.182;2024-02-04T09:08:05;9.80;1.00
3308;DHT22;1666;48.898;9.182;2024-02-04T09:10:35;9.80;1.00
3308;DHT22;1666;48.898;9.182;2024-02-04T09:13:07;9.60;1.00
3308;DHT22;1666;48.898;9.182;2024-02-04T09:15:37;9.60;1.00
3308;DHT22;1666;48.898;9.182;2024-02-04T09:18:08;9.70;1.00
3308;DHT22;1666;48.898;9.182;2024-02-04T09:20:38;9.70;1.00
3308;DHT22;1666;48.898;9.182;2024-02-04T09:23:08;9.70;1.00
3308;DHT22;1666;48.898;9.182;2024-02-04T09:25:40;9.80;1.00
3308;DHT22;1666;48.898;9.182;2024-02-04T09:28:13;9.80;1.00
3308;DHT22;1666;48.898;9.182;2024-02-04T09:30:43;9.80;1.00
3308;DHT22;1666;48.898;9.182;2024-02-04T09:33:13;10.00;1.00
3308;DHT22;1666;48.898;9.182;2024-02-04T09:35:44;10.00;1.00
3308;DHT22;1666;48.898;9.182;2024-02-04T09:38:16;10.20;1.00
3308;DHT22;1666;48.898;9.182;2024-02-04T09:40:47;10.40;1.00
3308;DHT22;1666;48.898;9.182;2024-02-04T09:43:20;10.40;1.00
3308;DHT22;1666;48.898;9.182;2024-02-04T09:45:50;10.50;1.00
3308;DHT22;1666;48.898;9.182;2024-02-04T09:48:21;10.60;1.00
3308;DHT22;1666;48.898;9.182;2024-02-04T09:50:52;10.50;1.00
3308;DHT22;1666;48.898;9.182;2024-02-04T09:53:32;10.90;1.00
3308;DHT22;1666;48.898;9.182;2024-02-04T09:56:04;10.80;1.00
3308;DHT22;1666;48.898;9.182;2024-02-04T09:58:38;10.90;1.00
3308;DHT22;1666;48.898;9.182;2024-02-04T10:01:08;11.00;1.00
3308;DHT22;1666;48.898;9.182;2024-02-04T10:03:41;11.00;1.00
3308;DHT22;1666;48.898;9.182;2024-02-04T10:06:11;11.20;1.00
3308;DHT22;1666;48.898;9.182;2024-02-04T10:08:42;11.00;1.00
3308;DHT22;1666;48.898;9.182;2024-02-04T10:11:13;10.90;1.00
3308;DHT22;1666;48.898;9.182;2024-02-04T10:13:48;10.60;1.00
3308;DHT22;1666;48.898;9.182;2024-02-04T10:16:17;10.90;1.00
3308;DHT22;1666;48.898;9.182;2024-02-04T10:18:48;11.00;1.00
3308;DHT22;1666;48.898;9.182;2024-02-04T10:21:21;11.30;1.00
3308;DHT22;1666;48.898;9.182;2024-02-04T10:23:52;11.10;1.00
3308;DHT22;1666;48.898;9.182;2024-02-04T10:26:23;11.00;1.00
3308;DHT22;1666;48.898;9.182;2024-02-04T10:29:01;10.90;1.00
3308;DHT22;1666;48.898;9.182;2024-02-04T10:31:31;10.90;1.00
3308;DHT22;1666;48.898;9.182;2024-02-04T10:34:03;10.80;1.00
3308;DHT22;1666;48.898;9.182;2024-02-04T10:36:35;10.70;1.00
3308;DHT22;1666;48.898;9.182;2024-02-04T10:39:05;10.80;1.00
3308;DHT22;1666;48.898;9.182;2024-02-04T10:41:44;10.70;1.00
3308;DHT22;1666;48.898;9.182;2024-02-04T10:44:23;11.00;1.00
3308;DHT22;1666;48.898;9.182;2024-02-04T10:46:54;11.00;1.00
3308;DHT22;1666;48.898;9.182;2024-02-04T10:49:26;11.20;1.00
3308;DHT22;1666;48.898;9.182;2024-02-04T10:51:59;11.00;1.00
3308;DHT22;1666;48.898;9.182;2024-02-04T10:54:30;10.70;1.00
3308;DHT22;1666;48.898;9.182;2024-02-04T10:57:05;10.70;1.00
3308;DHT22;1666;48.898;9.182;2024-02-04T10:59:38;10.70;1.00
3308;DHT22;1666;48.898;9.182;2024-02-04T11:02:10;10.90;1.00
3308;DHT22;1666;48.898;9.182;2024-02-04T11:04:41;10.90;1.00
3308;DHT22;1666;48.898;9.182;2024-02-04T11:07:14;11.00;1.00
3308;DHT22;1666;48.898;9.182;2024-02-04T11:09:46;11.20;1.00
3308;DHT22;1666;48.898;9.182;2024-02-04T11:12:19;11.20;1.00
3308;DHT22;1666;48.898;9.182;2024-02-04T11:14:55;11.20;1.00
3308;DHT22;1666;48.898;9.182;2024-02-04T11:17:43;11.20;1.00
3308;DHT22;1666;48.898;9.182;2024-02-04T11:20:30;11.20;1.00
3308;DHT22;1666;48.898;9.182;2024-02-04T11:23:22;11.00;1.00
3308;DHT22;1666;48.898;9.182;2024-02-04T11:25:57;10.80;1.00
3308;DHT22;1666;48.898;9.182;2024-02-04T11:28:28;10.80;1.00
3308;DHT22;1666;48.898;9.182;2024-02-04T11:31:01;10.80;1.00
3308;DHT22;1666;48.898;9.182;2024-02-04T11:33:32;10.70;1.00
3308;DHT22;1666;48.898;9.182;2024-02-04T11:36:03;10.70;1.00
3308;DHT22;1666;48.898;9.182;2024-02-04T11:38:36;10.70;1.00
3308;DHT22;1666;48.898;9.182;2024-02-04T11:41:06;10.60;1.00
3308;DHT22;1666;48.898;9.182;2024-02-04T11:43:37;10.60;1.00
3308;DHT22;1666;48.898;9.182;2024-02-04T11:46:16;10.70;1.00
3308;DHT22;1666;48.898;9.182;2024-02-04T11:48:51;10.60;1.00
3308;DHT22;1666;48.898;9.182;2024-02-04T11:51:22;10.50;1.00
3308;DHT22;1666;48.898;9.182;2024-02-04T11:53:54;10.60;1.00
3308;DHT22;1666;48.898;9.182;2024-02-04T11:56:25;10.70;1.00
3308;DHT22;1666;48.898;9.182;2024-02-04T11:58:55;10.80;1.00
3308;DHT22;1666;48.898;9.182;2024-02-04T12:01:28;10.80;1.00
3308;DHT22;1666;48.898;9.182;2024-02-04T12:04:08;10.80;1.00
3308;DHT22;1666;48.898;9.182;2024-02-04T12:06:40;10.80;1.00
3308;DHT22;1666;48.898;9.182;2024-02-04T12:09:10;10.80;1.00
3308;DHT22;1666;48.898;9.182;2024-02-04T12:11:42;10.80;1.00
3308;DHT22;1666;48.898;9.182;2024-02-04T12:14:13;10.90;1.00
3308;DHT22;1666;48.898;9.182;2024-02-04T12:16:46;10.90;1.00
3308;DHT22;1666;48.898;9.182;2024-02-04T12:19:16;11.00;1.00
3308;DHT22;1666;48.898;9.182;2024-02-04T12:21:47;11.00;1.00
3308;DHT22;1666;48.898;9.182;2024-02-04T12:24:17;11.00;1.00
3308;DHT22;1666;48.898;9.182;2024-02-04T12:26:47;11.10;1.00
3308;DHT22;1666;48.898;9.182;2024-02-04T12:29:17;11.00;1.00
3308;DHT22;1666;48.898;9.182;2024-02-04T12:31:57;10.90;1.00
3308;DHT22;1666;48.898;9.182;2024-02-04T12:34:28;11.00;1.00
3308;DHT22;1666;48.898;9.182;2024-02-04T12:36:59;10.90;1.00
3308;DHT22;1666;48.898;9.182;2024-02-04T12:39:30;10.90;1.00
3308;DHT22;1666;48.898;9.182;2024-02-04T12:42:00;11.10;1.00
3308;DHT22;1666;48.898;9.182;2024-02-04T12:44:31;11.10;1.00
3308;DHT22;1666;48.898;9.182;2024-02-04T12:47:05;11.00;1.00
3308;DHT22;1666;48.898;9.182;2024-02-04T12:49:35;11.00;1.00
3308;DHT22;1666;48.898;9.182;2024-02-04T12:52:06;11.20;1.00
3308;DHT22;1666;48.898;9.182;2024-02-04T12:54:42;11.30;1.00
3308;DHT22;1666;48.898;9.182;2024-02-04T12:57:21;11.30;1.00
3308;DHT22;1666;48.898;9.182;2024-02-04T12:59:52;11.20;1.00
3308;DHT22;1666;48.898;9.182;2024-02-04T13:02:25;11.40;1.00
3308;DHT22;1666;48.898;9.182;2024-02-04T13:04:55;11.50;1.00
3308;DHT22;1666;48.898;9.182;2024-02-04T13:07:25;11.20;1.00
3308;DHT22;1666;48.898;9.182;2024-02-04T13:09:58;11.30;1.00
3308;DHT22;1666;48.898;9.182;2024-02-04T13:12:29;11.40;1.00
3308;DHT22;1666;48.898;9.182;2024-02-04T13:15:03;11.20;1.00
3308;DHT22;1666;48.898;9.182;2024-02-04T13:17:35;11.40;1.00
3308;DHT22;1666;48.898;9.182;2024-02-04T13:20:06;11.20;1.00
3308;DHT22;1666;48.898;9.182;2024-02-04T13:22:37;11.30;1.00
3308;DHT22;1666;48.898;9.182;2024-02-04T13:25:07;11.30;1.00
3308;DHT22;1666;48.898;9.182;2024-02-04T13:27:37;11.30;1.00
3308;DHT22;1666;48.898;9.182;2024-02-04T13:30:08;11.30;1.00
3308;DHT22;1666;48.898;9.182;2024-02-04T13:32:42;10.90;1.00
3308;DHT22;1666;48.898;9.182;2024-02-04T13:35:13;11.20;1.00
3308;DHT22;1666;48.898;9.182;2024-02-04T13:37:47;11.40;1.00
3308;DHT22;1666;48.898;9.182;2024-02-04T13:40:19;11.60;1.00
3308;DHT22;1666;48.898;9.182;2024-02-04T13:42:50;11.50;1.00
3308;DHT22;1666;48.898;9.182;2024-02-04T13:45:20;11.40;1.00
3308;DHT22;1666;48.898;9.182;2024-02-04T13:47:53;11.20;1.00
3308;DHT22;1666;48.898;9.182;2024-02-04T13:50:23;11.20;1.00
3308;DHT22;1666;48.898;9.182;2024-02-04T13:52:54;11.40;1.00
3308;DHT22;1666;48.898;9.182;2024-02-04T13:55:24;11.10;1.00
3308;DHT22;1666;48.898;9.182;2024-02-04T13:57:54;11.40;1.00
3308;DHT22;1666;48.898;9.182;2024-02-04T14:00:24;11.10;1.00
3308;DHT22;1666;48.898;9.182;2024-02-04T14:02:57;11.30;1.00
3308;DHT22;1666;48.898;9.182;2024-02-04T14:05:27;11.30;1.00
3308;DHT22;1666;48.898;9.182;2024-02-04T14:07:57;10.90;1.00
3308;DHT22;1666;48.898;9.182;2024-02-04T14:10:27;10.90;1.00
3308;DHT22;1666;48.898;9.182;2024-02-04T14:12:57;10.80;1.00
3308;DHT22;1666;48.898;9.182;2024-02-04T14:15:27;11.00;1.00
3308;DHT22;1666;48.898;9.182;2024-02-04T14:18:00;10.90;1.00
3308;DHT22;1666;48.898;9.182;2024-02-04T14:20:30;10.80;1.00
3308;DHT22;1666;48.898;9.182;2024-02-04T14:23:00;10.80;1.00
3308;DHT22;1666;48.898;9.182;2024-02-04T14:25:30;10.90;1.00
3308;DHT22;1666;48.898;9.182;2024-02-04T14:28:00;11.00;1.00
3308;DHT22;1666;48.898;9.182;2024-02-04T14:30:31;11.00;1.00
3308;DHT22;1666;48.898;9.182;2024-02-04T14:33:04;10.90;1.00
3308;DHT22;1666;48.898;9.182;2024-02-04T14:35:35;10.90;1.00
3308;DHT22;1666;48.898;9.182;2024-02-04T14:38:05;11.00;1.00
3308;DHT22;1666;48.898;9.182;2024-02-04T14:40:35;10.80;1.00
3308;DHT22;1666;48.898;9.182;2024-02-04T14:43:05;10.80;1.00
3308;DHT22;1666;48.898;9.182;2024-02-04T14:45:36;10.80;1.00
3308;DHT22;1666;48.898;9.182;2024-02-04T14:48:09;10.90;1.00
3308;DHT22;1666;48.898;9.182;2024-02-04T14:50:39;10.80;1.00
3308;DHT22;1666;48.898;9.182;2024-02-04T14:53:09;10.70;1.00
3308;DHT22;1666;48.898;9.182;2024-02-04T14:55:39;10.70;1.00
3308;DHT22;1666;48.898;9.182;2024-02-04T14:58:10;10.70;1.00
3308;DHT22;1666;48.898;9.182;2024-02-04T15:00:40;10.60;1.00
3308;DHT22;1666;48.898;9.182;2024-02-04T15:03:13;10.60;1.00
3308;DHT22;1666;48.898;9.182;2024-02-04T15:05:44;10.50;1.00
3308;DHT22;1666;48.898;9.182;2024-02-04T15:08:14;10.40;1.00
3308;DHT22;1666;48.898;9.182;2024-02-04T15:10:44;10.50;1.00
3308;DHT22;1666;48.898;9.182;2024-02-04T15:13:15;10.40;1.00
3308;DHT22;1666;48.898;9.182;2024-02-04T15:15:46;10.50;1.00
3308;DHT22;1666;48.898;9.182;2024-02-04T15:18:19;10.30;1.00
3308;DHT22;1666;48.898;9.182;2024-02-04T15:20:50;10.40;1.00
3308;DHT22;1666;48.898;9.182;2024-02-04T15:23:21;10.20;1.00
3308;DHT22;1666;48.898;9.182;2024-02-04T15:25:52;10.20;1.00
3308;DHT22;1666;48.898;9.182;2024-02-04T15:28:23;10.20;1.00
3308;DHT22;1666;48.898;9.182;2024-02-04T15:30:54;10.20;1.00
3308;DHT22;1666;48.898;9.182;2024-02-04T15:33:28;10.20;1.00
3308;DHT22;1666;48.898;9.182;2024-02-04T15:35:58;10.00;1.00
3308;DHT22;1666;48.898;9.182;2024-02-04T15:38:29;10.00;1.00
3308;DHT22;1666;48.898;9.182;2024-02-04T15:40:59;10.00;1.00
3308;DHT22;1666;48.898;9.182;2024-02-04T15:43:29;10.00;1.00
3308;DHT22;1666;48.898;9.182;2024-02-04T15:46:01;10.00;1.00
3308;DHT22;1666;48.898;9.182;2024-02-04T15:48:38;9.90;1.00
3308;DHT22;1666;48.898;9.182;2024-02-04T15:51:11;10.00;1.00
3308;DHT22;1666;48.898;9.182;2024-02-04T15:53:42;10.00;1.00
3308;DHT22;1666;48.898;9.182;2024-02-04T15:56:13;10.00;1.00
3308;DHT22;1666;48.898;9.182;2024-02-04T15:58:47;10.00;1.00
3308;DHT22;1666;48.898;9.182;2024-02-04T16:01:21;9.90;1.00
3308;DHT22;1666;48.898;9.182;2024-02-04T16:03:59;10.00;1.00
3308;DHT22;1666;48.898;9.182;2024-02-04T16:06:30;9.90;1.00
3308;DHT22;1666;48.898;9.182;2024-02-04T16:09:01;9.90;1.00
3308;DHT22;1666;48.898;9.182;2024-02-04T16:11:42;9.90;1.00
3308;DHT22;1666;48.898;9.182;2024-02-04T16:14:13;9.90;1.00
3308;DHT22;1666;48.898;9.182;2024-02-04T16:16:44;9.80;1.00
3308;DHT22;1666;48.898;9.182;2024-02-04T16:19:22;9.80;1.00
3308;DHT22;1666;48.898;9.182;2024-02-04T16:21:52;9.80;1.00
3308;DHT22;1666;48.898;9.182;2024-02-04T16:24:23;9.70;1.00
3308;DHT22;1666;48.898;9.182;2024-02-04T16:26:54;9.70;1.00
3308;DHT22;1666;48.898;9.182;2024-02-04T16:29:25;9.70;1.00
3308;DHT22;1666;48.898;9.182;2024-02-04T16:31:57;9.70;1.00
3308;DHT22;1666;48.898;9.182;2024-02-04T16:34:31;9.70;1.00
3308;DHT22;1666;48.898;9.182;2024-02-04T16:37:03;9.60;1.00
3308;DHT22;1666;48.898;9.182;2024-02-04T16:39:36;9.70;1.00
3308;DHT22;1666;48.898;9.182;2024-02-04T16:42:08;9.70;1.00
3308;DHT22;1666;48.898;9.182;2024-02-04T16:44:38;9.60;1.00
3308;DHT22;1666;48.898;9.182;2024-02-04T16:47:08;9.70;1.00
3308;DHT22;1666;48.898;9.182;2024-02-04T16:49:41;9.70;1.00
3308;DHT22;1666;48.898;9.182;2024-02-04T16:52:11;9.70;1.00
3308;DHT22;1666;48.898;9.182;2024-02-04T16:54:42;9.70;1.00
3308;DHT22;1666;48.898;9.182;2024-02-04T16:57:16;9.70;1.00